Impacts TAF Board
For situational awareness. Not to be used for flight planning purposes.
IDs:

KTEX - Telluride Rgnl, CO, US

Issued at 2320 UTC 05 Dec 2019
Updated at 0107 UTC 06 Dec 2019
Potential Impact None Slight Moderate High
Time<<06/14Z 06/15Z 06/16Z 06/17Z 06/18Z 06/19Z 06/20Z 06/21Z 06/22Z 06/23Z 07/00Z 07/01Z 07/02Z>>
Type PRVL PRVL PRVL PRVL PRVL PRVL PRVL PRVL PRVL PRVL
VIS >6 >6 >6 >6 >6 >6 >6 >6 >6 >6
CIG -- -- -- -- -- -- -- -- -- --
Cover FEW FEW FEW FEW FEW SCT SCT SCT SCT SCT
FltCat VFR VFR VFR VFR VFR VFR VFR VFR VFR VFR
WX -- -- -- -- -- -- -- -- -- --
WDir 180 180 180 180 180 250 250 250 250 250
WSpd 5 5 5 5 5 3 3 3 3 3
WGst -- -- -- -- -- -- -- -- -- --
Raw TAF
KTEX 052320Z 0600/0624 26005KT P6SM VCSH BKN040
  FM060200 18005KT P6SM FEW120
  FM061900 25003KT P6SM SCT250


METAR Board
Radar Display
Forecast Discussion
For situational awareness. Not to be used for flight planning purposes.